createdAt,value
2022-11-30T00:01:05.190Z,0
2022-11-30T00:02:21.311Z,0
2022-11-30T00:03:38.416Z,0
2022-11-30T00:04:55.520Z,0
2022-11-30T00:06:12.625Z,0
2022-11-30T00:07:29.730Z,0
2022-11-30T00:08:46.835Z,0
2022-11-30T00:10:03.940Z,0
2022-11-30T00:11:21.044Z,0
2022-11-30T00:12:38.149Z,0
2022-11-30T00:13:55.254Z,0
2022-11-30T00:15:12.358Z,0
2022-11-30T00:16:29.463Z,0
2022-11-30T00:17:46.568Z,0
2022-11-30T00:19:02.689Z,0
2022-11-30T00:20:19.794Z,0
2022-11-30T00:21:36.899Z,0
2022-11-30T00:22:54.003Z,0
2022-11-30T00:24:11.108Z,0
2022-11-30T00:25:28.213Z,0
2022-11-30T00:26:45.317Z,0
2022-11-30T00:28:01.443Z,0
2022-11-30T00:29:17.564Z,0
2022-11-30T00:30:34.669Z,0
2022-11-30T00:31:51.774Z,0
2022-11-30T00:33:08.879Z,0
2022-11-30T00:35:43.088Z,0
2022-11-30T00:37:00.193Z,0
2022-11-30T00:38:17.298Z,0
2022-11-30T00:39:34.402Z,0
2022-11-30T00:40:51.507Z,0
2022-11-30T00:42:08.612Z,0
2022-11-30T00:43:25.717Z,0
2022-11-30T00:44:42.822Z,0
2022-11-30T00:45:58.943Z,0
2022-11-30T00:47:16.047Z,0
2022-11-30T00:48:33.152Z,0
2022-11-30T00:49:50.257Z,0
2022-11-30T00:51:07.363Z,0
2022-11-30T00:52:24.467Z,0
2022-11-30T00:53:41.573Z,0
2022-11-30T00:54:58.677Z,0
2022-11-30T00:56:14.803Z,0
2022-11-30T00:57:30.924Z,0
2022-11-30T00:58:47.050Z,0
2022-11-30T01:00:03.171Z,0
2022-11-30T01:01:20.276Z,0
2022-11-30T01:02:37.381Z,0
2022-11-30T01:03:53.507Z,0
2022-11-30T01:05:09.628Z,0
2022-11-30T01:06:26.732Z,0
2022-11-30T01:07:43.837Z,0
2022-11-30T01:09:00.942Z,0
2022-11-30T01:10:18.046Z,0
2022-11-30T01:11:35.152Z,0
2022-11-30T01:12:52.256Z,0
2022-11-30T01:14:09.361Z,0
2022-11-30T01:15:26.466Z,0
2022-11-30T01:16:43.571Z,0
2022-11-30T01:18:00.675Z,0
2022-11-30T01:19:17.780Z,0
2022-11-30T01:20:34.885Z,0
2022-11-30T01:21:51.006Z,0
2022-11-30T01:23:08.111Z,0
2022-11-30T01:24:25.216Z,0
2022-11-30T01:25:42.320Z,0
2022-11-30T01:26:59.425Z,0
2022-11-30T01:28:16.530Z,0
2022-11-30T01:29:33.634Z,0
2022-11-30T01:30:49.760Z,0
2022-11-30T01:32:05.881Z,0
2022-11-30T01:33:22.007Z,0
2022-11-30T01:34:38.128Z,0
2022-11-30T01:35:55.233Z,0
2022-11-30T01:37:12.337Z,0
2022-11-30T01:38:29.443Z,0
2022-11-30T01:39:46.547Z,0
2022-11-30T01:41:03.652Z,0
2022-11-30T01:42:20.758Z,0
2022-11-30T01:43:37.862Z,0
2022-11-30T01:44:54.967Z,0
2022-11-30T01:46:12.071Z,0
2022-11-30T01:47:29.176Z,0
2022-11-30T01:48:46.281Z,0
2022-11-30T01:50:03.386Z,0
2022-11-30T01:51:19.507Z,0
2022-11-30T01:52:36.611Z,0
2022-11-30T01:53:53.716Z,0
2022-11-30T01:55:10.821Z,0
2022-11-30T01:56:27.926Z,0
2022-11-30T01:57:45.030Z,0
2022-11-30T01:59:02.135Z,0
2022-11-30T02:00:18.261Z,0
2022-11-30T02:01:34.382Z,0
2022-11-30T02:02:51.487Z,0
2022-11-30T02:04:08.591Z,0
2022-11-30T02:05:24.717Z,0
2022-11-30T02:06:40.838Z,0
2022-11-30T02:07:57.943Z,0
2022-11-30T02:09:15.048Z,0
2022-11-30T02:10:32.152Z,0
2022-11-30T02:11:49.257Z,0
2022-11-30T02:13:06.362Z,0
2022-11-30T02:14:23.466Z,0
2022-11-30T02:15:40.571Z,0
2022-11-30T02:16:57.676Z,0
2022-11-30T02:18:14.781Z,0
2022-11-30T02:19:31.885Z,0
2022-11-30T02:20:48.990Z,0
2022-11-30T02:22:06.094Z,0
2022-11-30T02:23:22.215Z,0
2022-11-30T02:24:39.320Z,0
2022-11-30T02:25:56.425Z,0
2022-11-30T02:27:13.530Z,0
2022-11-30T02:28:30.634Z,0
2022-11-30T02:29:47.739Z,0
2022-11-30T02:31:04.845Z,0
2022-11-30T02:32:20.971Z,0
2022-11-30T02:33:37.092Z,0
2022-11-30T02:34:53.218Z,0
2022-11-30T02:36:09.338Z,0
2022-11-30T02:37:26.443Z,0
2022-11-30T02:38:43.548Z,0
2022-11-30T02:40:00.652Z,0
2022-11-30T02:41:17.757Z,0
2022-11-30T02:42:34.862Z,0
2022-11-30T02:43:51.967Z,0
2022-11-30T02:45:09.072Z,0
2022-11-30T02:46:26.176Z,0
2022-11-30T02:47:43.281Z,0
2022-11-30T02:49:00.386Z,0
2022-11-30T02:50:17.490Z,0
2022-11-30T02:51:34.595Z,0
2022-11-30T02:52:50.716Z,0
2022-11-30T02:54:07.821Z,0
2022-11-30T02:55:24.925Z,0
2022-11-30T02:56:42.030Z,0
2022-11-30T02:57:59.135Z,0
2022-11-30T02:59:16.239Z,0
2022-11-30T03:00:33.344Z,0
2022-11-30T03:01:49.470Z,0
2022-11-30T03:03:05.591Z,0
2022-11-30T03:04:21.717Z,0
2022-11-30T03:05:37.837Z,0
2022-11-30T03:06:54.942Z,0
2022-11-30T03:08:12.047Z,0
2022-11-30T03:09:29.153Z,0
2022-11-30T03:10:46.257Z,0
2022-11-30T03:12:03.362Z,0
2022-11-30T03:13:20.467Z,0
2022-11-30T03:14:37.571Z,0
2022-11-30T03:15:54.676Z,0
2022-11-30T03:17:11.781Z,0
2022-11-30T03:18:28.885Z,0
2022-11-30T03:19:45.990Z,0
2022-11-30T03:21:03.095Z,0
2022-11-30T03:22:19.216Z,0
2022-11-30T03:23:36.321Z,0
2022-11-30T03:24:53.425Z,0
2022-11-30T03:26:10.530Z,0
2022-11-30T03:27:27.634Z,0
2022-11-30T03:28:44.740Z,0
2022-11-30T03:30:01.845Z,0
2022-11-30T03:31:17.971Z,0
2022-11-30T03:32:34.092Z,0
2022-11-30T03:33:51.197Z,0
2022-11-30T03:35:08.301Z,0
2022-11-30T03:36:24.427Z,0
2022-11-30T03:37:40.548Z,0
2022-11-30T03:40:14.757Z,0
2022-11-30T03:41:31.862Z,0
2022-11-30T03:42:48.966Z,0
2022-11-30T03:44:06.071Z,0
2022-11-30T03:45:22.192Z,0
2022-11-30T03:46:39.297Z,0
2022-11-30T03:47:56.402Z,0
2022-11-30T03:49:13.506Z,0
2022-11-30T03:50:30.611Z,0
2022-11-30T03:51:47.716Z,0
2022-11-30T03:53:04.820Z,0
2022-11-30T03:54:21.925Z,0
2022-11-30T03:55:39.030Z,0
2022-11-30T03:56:56.134Z,0
2022-11-30T03:58:13.239Z,0
2022-11-30T03:59:30.344Z,0
2022-11-30T04:00:47.448Z,0
2022-11-30T04:02:03.569Z,0
2022-11-30T04:03:20.674Z,0
2022-11-30T04:04:36.800Z,0
2022-11-30T04:05:52.921Z,0
2022-11-30T04:07:09.047Z,0
2022-11-30T04:08:25.167Z,0
2022-11-30T04:09:42.272Z,0
2022-11-30T04:10:59.377Z,0
2022-11-30T04:12:16.481Z,0
2022-11-30T04:13:33.586Z,0
2022-11-30T04:14:50.691Z,0
2022-11-30T04:16:07.796Z,0
2022-11-30T04:17:24.900Z,0
2022-11-30T04:18:42.005Z,0
2022-11-30T04:19:59.110Z,0
2022-11-30T04:21:16.214Z,0
2022-11-30T04:22:33.319Z,0
2022-11-30T04:23:50.424Z,0
2022-11-30T04:25:06.545Z,0
2022-11-30T04:26:23.650Z,0
2022-11-30T04:27:40.754Z,0
2022-11-30T04:28:57.859Z,0
2022-11-30T04:30:14.963Z,0
2022-11-30T04:31:32.068Z,0
2022-11-30T04:32:49.173Z,0
2022-11-30T04:34:05.299Z,0
2022-11-30T04:35:21.420Z,0
2022-11-30T04:36:38.524Z,0
2022-11-30T04:37:55.629Z,0
2022-11-30T04:39:11.755Z,0
2022-11-30T04:40:27.876Z,0
2022-11-30T04:41:44.981Z,0
2022-11-30T04:43:02.085Z,0
2022-11-30T04:44:19.191Z,0
2022-11-30T04:45:36.296Z,0
2022-11-30T04:46:53.400Z,0
2022-11-30T04:48:10.505Z,0
2022-11-30T04:49:27.609Z,0
2022-11-30T04:50:44.714Z,0
2022-11-30T04:52:01.819Z,0
2022-11-30T04:53:18.924Z,0
2022-11-30T04:54:36.028Z,0
2022-11-30T04:55:53.133Z,0
2022-11-30T04:57:09.254Z,0
2022-11-30T04:58:26.358Z,0
2022-11-30T04:59:43.463Z,0
2022-11-30T05:01:00.568Z,0
2022-11-30T05:02:17.672Z,0
2022-11-30T05:03:34.777Z,0
2022-11-30T05:04:51.882Z,0
2022-11-30T05:06:08.008Z,0
2022-11-30T05:07:24.129Z,0
2022-11-30T05:08:40.255Z,0
2022-11-30T05:09:56.375Z,0
2022-11-30T05:11:13.480Z,0
2022-11-30T05:12:30.585Z,0
2022-11-30T05:13:47.689Z,0
2022-11-30T05:15:04.794Z,0
2022-11-30T05:16:21.899Z,0
2022-11-30T05:17:39.003Z,0
2022-11-30T05:18:56.108Z,0
2022-11-30T05:20:13.213Z,0
2022-11-30T05:21:30.318Z,0
2022-11-30T05:22:47.423Z,0
2022-11-30T05:24:04.528Z,0
2022-11-30T05:25:21.632Z,0
2022-11-30T05:26:37.753Z,0
2022-11-30T05:27:54.858Z,0
2022-11-30T05:29:11.963Z,0
2022-11-30T05:30:29.068Z,0
2022-11-30T05:31:46.172Z,0
2022-11-30T05:33:03.277Z,0
2022-11-30T05:34:20.382Z,0
2022-11-30T05:35:36.508Z,0
2022-11-30T05:36:52.628Z,0
2022-11-30T05:38:09.733Z,0
2022-11-30T05:39:26.838Z,0
2022-11-30T05:40:43.942Z,0
2022-11-30T05:42:01.047Z,0
2022-11-30T05:43:18.152Z,0
2022-11-30T05:44:35.257Z,0
2022-11-30T05:45:52.361Z,0
2022-11-30T05:47:09.466Z,0
2022-11-30T05:48:26.570Z,0
2022-11-30T05:49:43.675Z,0
2022-11-30T05:51:00.780Z,0
2022-11-30T05:52:17.884Z,0
2022-11-30T05:53:34.005Z,0
2022-11-30T05:54:51.110Z,0
2022-11-30T05:56:08.215Z,0
2022-11-30T05:57:25.319Z,0
2022-11-30T05:58:42.424Z,0
2022-11-30T05:59:59.529Z,0
2022-11-30T06:01:16.633Z,0
2022-11-30T06:02:32.759Z,0
2022-11-30T06:03:48.880Z,0
2022-11-30T06:05:05.006Z,0
2022-11-30T06:06:21.127Z,0
2022-11-30T06:07:38.232Z,0
2022-11-30T06:08:55.336Z,0
2022-11-30T06:10:12.441Z,0
2022-11-30T06:11:29.546Z,0
2022-11-30T06:12:46.650Z,0
2022-11-30T06:14:03.755Z,0
2022-11-30T06:15:20.860Z,0
2022-11-30T06:16:37.964Z,0
2022-11-30T06:17:55.069Z,0
2022-11-30T06:19:12.173Z,0
2022-11-30T06:20:29.278Z,0
2022-11-30T06:21:46.383Z,0
2022-11-30T06:23:02.504Z,0
2022-11-30T06:24:19.609Z,0
2022-11-30T06:25:36.713Z,0
2022-11-30T06:26:53.818Z,0
2022-11-30T06:28:10.922Z,0
2022-11-30T06:29:28.027Z,0
2022-11-30T06:30:45.132Z,0
2022-11-30T06:32:01.258Z,0
2022-11-30T06:33:17.379Z,0
2022-11-30T06:34:33.505Z,0
2022-11-30T06:35:49.626Z,0
2022-11-30T06:37:06.731Z,0
2022-11-30T06:38:23.835Z,0
2022-11-30T06:39:40.940Z,0
2022-11-30T06:40:58.045Z,4
2022-11-30T06:42:15.149Z,4
2022-11-30T06:43:32.254Z,0
2022-11-30T06:44:49.358Z,4
2022-11-30T06:46:06.463Z,4
2022-11-30T06:47:23.568Z,4
2022-11-30T06:48:40.673Z,8
2022-11-30T06:49:57.777Z,8
2022-11-30T06:51:14.882Z,8
2022-11-30T06:52:31.003Z,8
2022-11-30T06:53:48.108Z,8
2022-11-30T06:55:05.212Z,12
2022-11-30T06:56:22.317Z,12
2022-11-30T06:57:39.422Z,16
2022-11-30T06:58:56.527Z,16
2022-11-30T07:00:13.631Z,16
2022-11-30T07:01:29.757Z,24
2022-11-30T07:02:45.878Z,24
2022-11-30T07:04:02.004Z,28
2022-11-30T07:05:18.125Z,32
2022-11-30T07:06:35.230Z,36
2022-11-30T07:07:52.000Z,40
2022-11-30T07:09:09.439Z,44
2022-11-30T07:10:26.544Z,44
2022-11-30T07:11:43.648Z,40
2022-11-30T07:13:00.753Z,48
2022-11-30T07:14:17.858Z,48
2022-11-30T07:15:34.963Z,56
2022-11-30T07:16:52.067Z,60
2022-11-30T07:18:09.172Z,64
2022-11-30T07:19:26.275Z,64
2022-11-30T07:20:43.379Z,68
2022-11-30T07:21:59.500Z,72
2022-11-30T07:23:16.605Z,76
2022-11-30T07:24:33.709Z,76
2022-11-30T07:25:50.815Z,80
2022-11-30T07:27:07.919Z,88
2022-11-30T07:28:25.024Z,96
2022-11-30T07:29:42.129Z,100
2022-11-30T07:30:58.255Z,100
2022-11-30T07:32:14.375Z,92
2022-11-30T07:33:31.480Z,84
2022-11-30T07:34:48.585Z,72
2022-11-30T07:36:04.711Z,76
2022-11-30T07:37:20.832Z,84
2022-11-30T07:38:37.936Z,96
2022-11-30T07:39:55.041Z,108
2022-11-30T07:41:12.146Z,112
2022-11-30T07:42:29.251Z,120
2022-11-30T07:43:46.355Z,132
2022-11-30T07:45:03.460Z,140
2022-11-30T07:46:20.565Z,152
2022-11-30T07:47:37.669Z,164
2022-11-30T07:48:54.775Z,172
2022-11-30T07:50:11.880Z,200
2022-11-30T07:51:28.985Z,220
2022-11-30T07:52:46.089Z,224
2022-11-30T07:54:02.210Z,224
2022-11-30T07:55:19.315Z,236
2022-11-30T07:56:36.420Z,252
2022-11-30T07:57:53.524Z,272
2022-11-30T07:59:10.629Z,276
2022-11-30T08:00:27.734Z,284
2022-11-30T08:01:44.839Z,288
2022-11-30T08:03:00.975Z,304
2022-11-30T08:04:17.096Z,328
2022-11-30T08:05:33.222Z,368
2022-11-30T08:06:49.343Z,388
2022-11-30T08:08:06.448Z,392
2022-11-30T08:09:23.553Z,408
2022-11-30T08:10:40.657Z,444
2022-11-30T08:11:57.762Z,488
2022-11-30T08:13:14.867Z,496
2022-11-30T08:14:31.972Z,512
2022-11-30T08:15:49.077Z,568
2022-11-30T08:17:06.181Z,572
2022-11-30T08:18:23.286Z,560
2022-11-30T08:19:40.391Z,576
2022-11-30T08:20:57.496Z,592
2022-11-30T08:22:14.601Z,580
2022-11-30T08:23:30.722Z,596
2022-11-30T08:24:47.827Z,644
2022-11-30T08:26:04.932Z,668
2022-11-30T08:27:22.036Z,728
2022-11-30T08:28:39.141Z,764
2022-11-30T08:29:56.246Z,828
2022-11-30T08:31:13.351Z,872
2022-11-30T08:32:29.477Z,884
2022-11-30T08:33:45.598Z,904
2022-11-30T08:35:02.703Z,948
2022-11-30T08:36:18.829Z,1008
2022-11-30T08:37:34.950Z,1016
2022-11-30T08:38:52.055Z,1072
2022-11-30T08:40:09.160Z,1076
2022-11-30T08:41:26.264Z,1116
2022-11-30T08:42:43.369Z,1172
2022-11-30T08:44:00.474Z,1196
2022-11-30T08:45:17.579Z,1144
2022-11-30T08:46:34.684Z,1140
2022-11-30T08:47:51.789Z,1112
2022-11-30T08:49:08.894Z,1048
2022-11-30T08:50:25.998Z,1016
2022-11-30T08:51:43.103Z,976
2022-11-30T08:53:00.208Z,920
2022-11-30T08:54:16.329Z,916
2022-11-30T08:55:33.434Z,924
2022-11-30T08:56:50.539Z,940
2022-11-30T08:58:07.644Z,960
2022-11-30T08:59:24.749Z,968
2022-11-30T09:00:41.853Z,988
2022-11-30T09:01:58.958Z,1048
2022-11-30T09:03:15.084Z,1100
2022-11-30T09:04:31.205Z,1112
2022-11-30T09:05:48.310Z,1096
2022-11-30T09:07:05.415Z,1036
2022-11-30T09:08:21.541Z,1016
2022-11-30T09:09:37.662Z,1056
2022-11-30T09:10:54.767Z,1076
2022-11-30T09:12:11.872Z,1064
2022-11-30T09:13:28.977Z,1040
2022-11-30T09:14:46.082Z,1032
2022-11-30T09:16:03.186Z,1028
2022-11-30T09:17:20.291Z,1008
2022-11-30T09:18:37.396Z,1032
2022-11-30T09:19:54.501Z,1088
2022-11-30T09:21:11.605Z,1188
2022-11-30T09:22:28.711Z,1228
2022-11-30T09:23:45.815Z,1284
2022-11-30T09:25:02.920Z,1296
2022-11-30T09:26:19.041Z,1264
2022-11-30T09:27:36.146Z,1292
2022-11-30T09:28:53.251Z,1288
2022-11-30T09:30:10.355Z,1312
2022-11-30T09:31:27.460Z,1420
2022-11-30T09:32:44.565Z,1416
2022-11-30T09:34:01.670Z,1424
2022-11-30T09:35:17.796Z,1480
2022-11-30T09:36:33.917Z,1476
2022-11-30T09:37:51.022Z,1404
2022-11-30T09:39:08.127Z,1360
2022-11-30T09:40:25.231Z,1324
2022-11-30T09:41:42.336Z,1300
2022-11-30T09:42:59.441Z,1312
2022-11-30T09:44:16.546Z,1316
2022-11-30T09:45:33.650Z,1288
2022-11-30T09:46:50.755Z,1280
2022-11-30T09:48:07.860Z,1288
2022-11-30T09:49:24.965Z,1336
2022-11-30T09:50:42.070Z,1376
2022-11-30T09:51:59.174Z,1404
2022-11-30T09:53:15.295Z,1436
2022-11-30T09:54:32.400Z,1476
2022-11-30T09:55:49.505Z,1484
2022-11-30T09:57:06.610Z,1480
2022-11-30T09:58:23.715Z,1500
2022-11-30T09:59:40.819Z,1592
2022-11-30T10:00:57.924Z,1664
2022-11-30T10:02:14.050Z,1748
2022-11-30T10:03:30.171Z,1912
2022-11-30T10:04:46.297Z,2096
2022-11-30T10:06:02.418Z,2264
2022-11-30T10:07:19.524Z,2468
2022-11-30T10:08:36.629Z,2704
2022-11-30T10:09:53.733Z,2944
2022-11-30T10:11:10.838Z,3168
2022-11-30T10:12:27.943Z,3368
2022-11-30T10:13:45.048Z,3472
2022-11-30T10:15:02.153Z,3484
2022-11-30T10:16:19.257Z,3448
2022-11-30T10:17:36.363Z,3452
2022-11-30T10:18:53.468Z,3532
2022-11-30T10:20:10.573Z,3652
2022-11-30T10:21:27.677Z,3728
2022-11-30T10:22:43.798Z,3724
2022-11-30T10:24:00.903Z,3652
2022-11-30T10:25:18.008Z,3544
2022-11-30T10:26:35.113Z,3384
2022-11-30T10:27:52.218Z,3240
2022-11-30T10:29:09.322Z,3196
2022-11-30T10:30:26.427Z,3192
2022-11-30T10:31:42.553Z,3160
2022-11-30T10:32:58.674Z,3116
2022-11-30T10:34:14.800Z,3024
2022-11-30T10:35:30.921Z,2868
2022-11-30T10:36:48.025Z,2784
2022-11-30T10:38:05.130Z,2788
2022-11-30T10:39:21.256Z,2808
2022-11-30T10:40:37.377Z,2784
2022-11-30T10:41:54.481Z,2796
2022-11-30T10:43:11.586Z,2812
2022-11-30T10:44:28.691Z,2752
2022-11-30T10:45:45.796Z,2552
2022-11-30T10:47:02.900Z,2392
2022-11-30T10:48:20.005Z,2292
2022-11-30T10:49:37.110Z,2208
2022-11-30T10:50:54.214Z,2236
2022-11-30T10:52:11.319Z,2276
2022-11-30T10:53:28.424Z,2340
2022-11-30T10:54:45.529Z,2352
2022-11-30T10:56:02.633Z,2432
2022-11-30T10:57:18.754Z,2416
2022-11-30T10:58:35.859Z,2400
2022-11-30T10:59:52.963Z,2404
2022-11-30T11:01:10.068Z,2356
2022-11-30T11:02:27.173Z,2296
2022-11-30T11:03:44.277Z,2212
2022-11-30T11:05:01.382Z,2152
2022-11-30T11:06:17.508Z,2116
2022-11-30T11:07:33.629Z,2068
2022-11-30T11:08:49.755Z,2004
2022-11-30T11:10:05.876Z,1888
2022-11-30T11:11:22.981Z,1796
2022-11-30T11:12:40.085Z,1760
2022-11-30T11:13:57.190Z,1724
2022-11-30T11:15:14.295Z,1700
2022-11-30T11:16:31.399Z,1720
2022-11-30T11:17:48.504Z,1764
2022-11-30T11:19:05.609Z,1820
2022-11-30T11:21:39.818Z,1920
2022-11-30T11:22:56.923Z,1964
2022-11-30T11:24:14.028Z,1980
2022-11-30T11:25:31.133Z,2044
2022-11-30T11:26:47.253Z,2168
2022-11-30T11:28:04.358Z,2312
2022-11-30T11:29:21.463Z,2416
2022-11-30T11:30:38.568Z,2492
2022-11-30T11:31:55.673Z,2456
2022-11-30T11:33:12.777Z,2556
2022-11-30T11:34:29.882Z,2784
2022-11-30T11:35:46.987Z,2920
2022-11-30T11:37:03.113Z,3000
2022-11-30T11:38:19.234Z,3044
2022-11-30T11:39:35.360Z,3104
2022-11-30T11:40:51.481Z,3160
2022-11-30T11:42:08.585Z,3164
2022-11-30T11:43:25.690Z,3092
2022-11-30T11:44:42.795Z,2932
2022-11-30T11:45:59.899Z,2776
2022-11-30T11:47:17.004Z,2564
2022-11-30T11:48:34.109Z,2260
2022-11-30T11:49:51.214Z,2212
2022-11-30T11:51:08.318Z,2396
2022-11-30T11:52:25.423Z,2620
2022-11-30T11:53:42.528Z,2812
2022-11-30T11:54:59.632Z,2940
2022-11-30T11:56:16.737Z,2988
2022-11-30T11:57:32.858Z,2968
2022-11-30T11:58:49.963Z,2932
2022-11-30T12:00:07.068Z,2892
2022-11-30T12:01:24.172Z,2876
2022-11-30T12:02:41.277Z,2872
2022-11-30T12:03:58.382Z,2856
2022-11-30T12:05:15.486Z,2816
2022-11-30T12:06:32.591Z,2740
2022-11-30T12:07:48.717Z,2660
2022-11-30T12:09:04.838Z,2612
2022-11-30T12:10:21.942Z,2624
2022-11-30T12:11:38.068Z,2604
2022-11-30T12:12:54.189Z,2552
2022-11-30T12:14:11.294Z,2512
2022-11-30T12:15:28.397Z,2528
2022-11-30T12:16:45.501Z,2560
2022-11-30T12:18:02.606Z,2548
2022-11-30T12:19:19.711Z,2520
2022-11-30T12:20:35.831Z,2496
2022-11-30T12:21:52.936Z,2412
2022-11-30T12:23:10.041Z,2292
2022-11-30T12:24:27.146Z,2184
2022-11-30T12:25:44.251Z,2084
2022-11-30T12:27:01.355Z,2024
2022-11-30T12:28:18.460Z,2004
2022-11-30T12:29:35.564Z,2004
2022-11-30T12:30:52.669Z,2016
2022-11-30T12:32:09.774Z,2016
2022-11-30T12:33:26.879Z,1996
2022-11-30T12:34:43.983Z,1940
2022-11-30T12:36:01.088Z,1892
2022-11-30T12:37:17.209Z,1864
2022-11-30T12:38:33.335Z,1832
2022-11-30T12:39:49.456Z,1828
2022-11-30T12:41:06.561Z,1832
2022-11-30T12:42:22.687Z,1800
2022-11-30T12:43:38.807Z,1784
2022-11-30T12:44:55.912Z,1812
2022-11-30T12:46:13.017Z,1844
2022-11-30T12:47:30.121Z,1852
2022-11-30T12:48:47.226Z,1864
2022-11-30T12:50:04.331Z,1936
2022-11-30T12:51:21.436Z,1996
2022-11-30T12:52:38.541Z,2024
2022-11-30T12:53:55.645Z,2024
2022-11-30T12:55:12.750Z,2024
2022-11-30T12:56:29.855Z,2000
2022-11-30T12:57:46.959Z,1988
2022-11-30T12:59:04.064Z,2036
2022-11-30T13:00:20.185Z,2076
2022-11-30T13:01:37.290Z,2064
2022-11-30T13:02:54.394Z,2044
2022-11-30T13:04:11.499Z,2048
2022-11-30T13:05:28.604Z,2056
2022-11-30T13:06:45.709Z,2024
2022-11-30T13:08:02.813Z,1960
2022-11-30T13:09:18.939Z,1900
2022-11-30T13:10:35.060Z,1908
2022-11-30T13:11:52.165Z,1936
2022-11-30T13:13:08.291Z,1932
2022-11-30T13:14:24.412Z,1868
2022-11-30T13:15:41.516Z,1768
2022-11-30T13:16:58.621Z,1680
2022-11-30T13:18:15.726Z,1628
2022-11-30T13:19:32.831Z,1560
2022-11-30T13:20:49.933Z,1472
2022-11-30T13:22:07.038Z,1416
2022-11-30T13:23:24.143Z,1412
2022-11-30T13:24:41.247Z,1384
2022-11-30T13:25:58.352Z,1340
2022-11-30T13:27:15.457Z,1280
2022-11-30T13:28:32.562Z,1252
2022-11-30T13:29:49.668Z,1236
2022-11-30T13:31:05.788Z,1220
2022-11-30T13:32:22.893Z,1176
2022-11-30T13:33:39.998Z,1156
2022-11-30T13:34:57.102Z,1152
2022-11-30T13:36:14.207Z,1140
2022-11-30T13:37:31.312Z,1112
2022-11-30T13:38:48.416Z,1084
2022-11-30T13:40:04.543Z,1084
2022-11-30T13:41:20.663Z,1088
2022-11-30T13:42:37.768Z,1080
2022-11-30T13:43:54.873Z,1072
2022-11-30T13:45:10.999Z,1068
2022-11-30T13:47:44.225Z,1044
2022-11-30T13:49:01.329Z,1036
2022-11-30T13:50:18.434Z,1032
2022-11-30T13:51:35.539Z,1016
2022-11-30T13:52:52.644Z,1004
2022-11-30T13:54:09.748Z,988
2022-11-30T13:55:26.854Z,972
2022-11-30T13:56:43.959Z,968
2022-11-30T13:58:01.064Z,968
2022-11-30T13:59:18.169Z,940
2022-11-30T14:00:35.273Z,904
2022-11-30T14:01:52.379Z,880
2022-11-30T14:03:08.500Z,868
2022-11-30T14:04:25.605Z,860
2022-11-30T14:05:42.709Z,848
2022-11-30T14:06:59.814Z,832
2022-11-30T14:08:16.919Z,824
2022-11-30T14:10:51.129Z,812
2022-11-30T14:12:08.233Z,796
2022-11-30T14:13:25.338Z,776
2022-11-30T14:14:41.464Z,752
2022-11-30T14:15:57.585Z,736
2022-11-30T14:17:14.690Z,724
2022-11-30T14:18:30.816Z,708
2022-11-30T14:19:46.937Z,688
2022-11-30T14:21:04.041Z,656
2022-11-30T14:22:21.146Z,628
2022-11-30T14:23:38.251Z,596
2022-11-30T14:24:55.356Z,572
2022-11-30T14:26:12.461Z,552
2022-11-30T14:27:29.565Z,532
2022-11-30T14:28:46.670Z,516
2022-11-30T14:30:03.775Z,500
2022-11-30T14:31:20.880Z,480
2022-11-30T14:32:37.984Z,468
2022-11-30T14:33:55.089Z,448
2022-11-30T14:35:12.194Z,428
2022-11-30T14:36:28.315Z,412
2022-11-30T14:37:45.420Z,400
2022-11-30T14:39:02.525Z,396
2022-11-30T14:40:19.629Z,388
2022-11-30T14:41:36.734Z,376
2022-11-30T14:42:53.839Z,356
2022-11-30T14:44:10.944Z,344
2022-11-30T14:45:27.070Z,332
2022-11-30T14:46:43.191Z,320
2022-11-30T14:47:59.317Z,312
2022-11-30T14:49:15.438Z,296
2022-11-30T14:50:32.543Z,284
2022-11-30T14:51:49.648Z,268
2022-11-30T14:53:06.751Z,256
2022-11-30T14:54:23.856Z,248
2022-11-30T14:55:40.960Z,244
2022-11-30T14:56:58.065Z,240
2022-11-30T14:58:15.170Z,236
2022-11-30T14:59:32.275Z,236
2022-11-30T15:00:49.381Z,232
2022-11-30T15:02:06.486Z,224
2022-11-30T15:03:23.590Z,220
2022-11-30T15:04:40.695Z,216
2022-11-30T15:05:56.816Z,204
2022-11-30T15:07:13.921Z,196
2022-11-30T15:08:31.026Z,188
2022-11-30T15:09:48.130Z,172
2022-11-30T15:11:05.235Z,160
2022-11-30T15:12:22.340Z,148
2022-11-30T15:13:39.445Z,140
2022-11-30T15:14:55.569Z,132
2022-11-30T15:16:11.690Z,124
2022-11-30T15:17:27.816Z,112
2022-11-30T15:18:43.937Z,104
2022-11-30T15:20:01.042Z,92
2022-11-30T15:21:18.147Z,88
2022-11-30T15:22:35.252Z,80
2022-11-30T15:23:52.357Z,76
2022-11-30T15:25:09.462Z,64
2022-11-30T15:26:26.567Z,60
2022-11-30T15:27:43.672Z,56
2022-11-30T15:29:00.776Z,52
2022-11-30T15:30:17.881Z,48
2022-11-30T15:31:34.986Z,40
2022-11-30T15:32:52.091Z,36
2022-11-30T15:34:09.195Z,32
2022-11-30T15:35:25.316Z,28
2022-11-30T15:36:42.421Z,28
2022-11-30T15:37:59.526Z,24
2022-11-30T15:39:16.631Z,20
2022-11-30T15:40:33.736Z,20
2022-11-30T15:41:50.841Z,16
2022-11-30T15:43:07.946Z,16
2022-11-30T15:44:24.072Z,16
2022-11-30T15:45:40.193Z,12
2022-11-30T15:46:56.319Z,12
2022-11-30T15:48:12.440Z,12
2022-11-30T15:49:29.545Z,8
2022-11-30T15:50:46.650Z,8
2022-11-30T15:52:03.755Z,8
2022-11-30T15:53:20.860Z,8
2022-11-30T15:54:37.965Z,8
2022-11-30T15:55:55.070Z,8
2022-11-30T15:57:12.175Z,8
2022-11-30T15:58:29.279Z,8
2022-11-30T15:59:46.384Z,8
2022-11-30T16:01:03.489Z,4
2022-11-30T16:02:20.594Z,4
2022-11-30T16:03:37.699Z,4
2022-11-30T16:04:53.820Z,8
2022-11-30T16:06:10.925Z,8
2022-11-30T16:07:28.030Z,8
2022-11-30T16:08:45.135Z,8
2022-11-30T16:10:02.240Z,8
2022-11-30T16:11:19.345Z,8
2022-11-30T16:12:36.450Z,8
2022-11-30T16:13:52.576Z,8
2022-11-30T16:15:08.697Z,8
2022-11-30T16:16:24.823Z,8
2022-11-30T16:17:40.944Z,8
2022-11-30T16:18:58.049Z,8
2022-11-30T16:20:15.154Z,8
2022-11-30T16:21:32.259Z,8
2022-11-30T16:22:49.364Z,8
2022-11-30T16:24:06.469Z,8
2022-11-30T16:25:23.574Z,8
2022-11-30T16:26:40.678Z,8
2022-11-30T16:27:57.783Z,0
2022-11-30T16:29:14.888Z,0
2022-11-30T16:30:31.993Z,0
2022-11-30T16:31:49.098Z,0
2022-11-30T16:33:06.203Z,0
2022-11-30T16:34:22.324Z,0
2022-11-30T16:35:39.429Z,0
2022-11-30T16:36:56.533Z,0
2022-11-30T16:38:12.655Z,0
2022-11-30T16:39:29.759Z,0
2022-11-30T16:40:46.864Z,0
2022-11-30T16:42:03.969Z,0
2022-11-30T16:43:20.095Z,0
2022-11-30T16:44:36.216Z,0
2022-11-30T16:45:53.321Z,0
2022-11-30T16:47:10.426Z,0
2022-11-30T16:48:27.531Z,0
2022-11-30T16:49:43.657Z,0
2022-11-30T16:50:59.778Z,0
2022-11-30T16:52:16.883Z,0
2022-11-30T16:53:33.988Z,0
2022-11-30T16:54:51.093Z,0
2022-11-30T16:56:08.197Z,0
2022-11-30T16:57:25.302Z,0
2022-11-30T16:58:42.407Z,0
2022-11-30T16:59:59.512Z,0
2022-11-30T17:01:16.617Z,0
2022-11-30T17:02:33.722Z,0
2022-11-30T17:03:50.827Z,0
2022-11-30T17:05:07.932Z,0
2022-11-30T17:06:25.037Z,0
2022-11-30T17:07:41.158Z,0
2022-11-30T17:08:58.262Z,0
2022-11-30T17:10:15.367Z,0
2022-11-30T17:11:32.472Z,0
2022-11-30T17:12:49.577Z,0
2022-11-30T17:14:06.682Z,0
2022-11-30T17:15:23.787Z,0
2022-11-30T17:16:39.913Z,0
2022-11-30T17:17:56.034Z,0
2022-11-30T17:19:12.160Z,0
2022-11-30T17:20:28.281Z,0
2022-11-30T17:21:45.386Z,0
2022-11-30T17:23:02.491Z,0
2022-11-30T17:24:19.596Z,0
2022-11-30T17:25:36.701Z,0
2022-11-30T17:26:53.806Z,0
2022-11-30T17:28:10.912Z,0
2022-11-30T17:29:28.016Z,0
2022-11-30T17:30:45.121Z,0
2022-11-30T17:32:02.226Z,0
2022-11-30T17:33:19.331Z,0
2022-11-30T17:34:36.436Z,0
2022-11-30T17:35:53.541Z,0
2022-11-30T17:37:09.661Z,0
2022-11-30T17:38:26.766Z,0
2022-11-30T17:39:43.871Z,0
2022-11-30T17:41:00.976Z,0
2022-11-30T17:42:18.081Z,0
2022-11-30T17:43:35.185Z,0
2022-11-30T17:44:52.290Z,0
2022-11-30T17:46:08.416Z,0
2022-11-30T17:47:24.535Z,0
2022-11-30T17:48:41.640Z,0
2022-11-30T17:49:58.745Z,0
2022-11-30T17:51:14.871Z,0
2022-11-30T17:52:30.991Z,0
2022-11-30T17:53:48.097Z,0
2022-11-30T17:55:05.201Z,0
2022-11-30T17:56:22.306Z,0
2022-11-30T17:57:39.411Z,0
2022-11-30T17:58:56.516Z,0
2022-11-30T18:00:13.619Z,0
2022-11-30T18:01:30.724Z,0
2022-11-30T18:02:47.829Z,0
2022-11-30T18:04:04.934Z,0
2022-11-30T18:05:22.037Z,0
2022-11-30T18:06:39.142Z,0
2022-11-30T18:07:56.246Z,0
2022-11-30T18:09:12.367Z,0
2022-11-30T18:10:29.472Z,0
2022-11-30T18:11:46.577Z,0
2022-11-30T18:13:03.682Z,0
2022-11-30T18:14:20.787Z,0
2022-11-30T18:15:37.892Z,0